Time;durP1;ratioP1;P1;durP2;ratioP2;P2;SDS_P1;SDS_P2;PMS_P1;PMS_P2;Temp;Humidity;BMP_temperature;BMP_pressure;BME280_temperature;BME280_humidity;BME280_pressure;Samples;Min_cycle;Max_cycle;Signal;HPM_P1;HPM_P2
2022/03/15 00:00:22;;;;;;;15.60;6.88;;;;;;;6.42;95.50;101793.66;8254621;28;20498;-64
2022/03/15 00:04:23;;;;;;;14.18;6.72;;;;;;;6.37;96.25;101791.25;8253659;28;20117;-64
2022/03/15 00:08:23;;;;;;;14.32;6.78;;;;;;;6.45;95.50;101782.75;8279597;28;20038;-64
2022/03/15 00:12:24;;;;;;;18.95;6.70;;;;;;;6.44;95.26;101778.34;8286224;28;20572;-64
2022/03/15 00:16:24;;;;;;;12.55;6.25;;;;;;;6.52;94.79;101770.75;8285175;28;20041;-64
2022/03/15 00:20:25;;;;;;;12.68;5.78;;;;;;;6.66;93.72;101763.66;8281649;28;20041;-64
2022/03/15 00:24:25;;;;;;;12.10;6.55;;;;;;;6.77;92.98;101771.13;8270703;28;20176;-64
2022/03/15 00:28:26;;;;;;;12.43;6.10;;;;;;;6.86;92.42;101766.06;8261942;28;20482;-64
2022/03/15 00:32:26;;;;;;;14.38;6.30;;;;;;;6.81;92.62;101776.25;8285989;28;20052;-64
2022/03/15 00:36:27;;;;;;;12.20;6.18;;;;;;;6.81;92.45;101770.00;8265099;28;20045;-64
2022/03/15 00:40:27;;;;;;;13.35;6.28;;;;;;;6.90;92.15;101774.84;8252320;28;20052;-64
2022/03/15 00:44:28;;;;;;;11.93;5.68;;;;;;;6.95;91.79;101786.22;8254435;28;20038;-64
2022/03/15 00:48:28;;;;;;;18.92;5.85;;;;;;;6.98;91.85;101775.28;8252582;28;20818;-64
2022/03/15 00:52:28;;;;;;;16.08;6.38;;;;;;;6.94;91.78;101774.59;8256891;28;20585;-64
2022/03/15 00:56:29;;;;;;;16.98;7.18;;;;;;;6.90;91.99;101778.41;8255833;28;20092;-64
2022/03/15 01:00:31;;;;;;;18.88;7.28;;;;;;;6.86;92.16;101776.81;8251613;28;20038;-64
2022/03/15 01:04:31;;;;;;;24.05;7.57;;;;;;;6.83;92.63;101778.84;8285003;28;20038;-64
2022/03/15 01:08:32;;;;;;;14.38;6.28;;;;;;;6.79;92.95;101775.44;8283746;28;20130;-64
2022/03/15 01:12:33;;;;;;;14.93;6.35;;;;;;;6.77;92.96;101782.72;8284486;28;20038;-64
2022/03/15 01:16:34;;;;;;;17.88;6.95;;;;;;;6.67;93.73;101776.13;8283750;28;20258;-64
2022/03/15 01:20:34;;;;;;;16.98;5.78;;;;;;;6.63;93.87;101782.63;8280291;28;20117;-64
2022/03/15 01:24:35;;;;;;;13.43;5.53;;;;;;;6.69;93.32;101782.31;8270962;28;20109;-64
2022/03/15 01:28:35;;;;;;;12.60;5.85;;;;;;;6.72;93.04;101784.81;8259298;28;20037;-64
2022/03/15 01:32:36;;;;;;;8.85;5.60;;;;;;;6.69;93.01;101778.72;8266074;28;20592;-64
2022/03/15 01:36:37;;;;;;;16.92;7.15;;;;;;;6.30;96.54;101771.03;8265919;28;20049;-64
2022/03/15 01:40:37;;;;;;;17.55;6.68;;;;;;;6.41;96.34;101771.34;8260091;28;20041;-64
2022/03/15 01:44:45;;;;;;;16.10;6.85;;;;;;;6.46;95.87;101766.56;8283719;28;20137;-64
2022/03/15 01:48:45;;;;;;;15.05;7.13;;;;;;;6.42;96.01;101762.31;8282129;28;20030;-64
2022/03/15 01:52:46;;;;;;;11.60;6.15;;;;;;;6.50;95.96;101760.09;8265158;28;20038;-64
2022/03/15 01:56:46;;;;;;;11.73;5.57;;;;;;;6.59;95.82;101753.34;8257487;28;20042;-64
2022/03/15 02:00:48;;;;;;;14.40;6.53;;;;;;;6.60;95.44;101747.88;8271688;28;20046;-64
2022/03/15 02:04:48;;;;;;;20.08;6.95;;;;;;;6.60;95.32;101747.00;8266339;28;20092;-64
2022/03/15 02:08:48;;;;;;;15.05;7.53;;;;;;;6.54;95.45;101731.22;8263805;28;20100;-64
2022/03/15 02:12:49;;;;;;;18.52;6.63;;;;;;;6.62;95.37;101745.94;8276358;28;20038;-64
2022/03/15 02:16:49;;;;;;;13.98;6.85;;;;;;;6.66;95.33;101747.53;8268762;28;20490;-64
2022/03/15 02:20:50;;;;;;;13.02;5.88;;;;;;;6.76;94.14;101737.13;8266398;28;20038;-64
2022/03/15 02:24:50;;;;;;;17.70;5.50;;;;;;;6.81;94.05;101743.09;8263225;28;20343;-64
2022/03/15 02:28:50;;;;;;;18.60;6.20;;;;;;;6.78;94.06;101736.09;8265181;28;20282;-64
2022/03/15 02:32:52;;;;;;;9.18;5.43;;;;;;;6.76;94.20;101731.75;8262263;28;20696;-64
2022/03/15 02:36:52;;;;;;;15.85;5.53;;;;;;;6.76;94.15;101726.38;8261162;28;20060;-64
2022/03/15 02:40:53;;;;;;;10.52;5.07;;;;;;;6.78;94.33;101719.09;8264813;28;20057;-64
2022/03/15 02:44:53;;;;;;;15.30;5.45;;;;;;;6.81;94.36;101714.41;8293524;28;20179;-64
2022/03/15 02:48:53;;;;;;;13.70;6.07;;;;;;;6.74;94.82;101702.25;8291526;28;20065;-64
2022/03/15 02:52:54;;;;;;;11.35;5.65;;;;;;;6.66;95.14;101700.97;8266252;28;20506;-64
2022/03/15 02:56:55;;;;;;;12.85;5.45;;;;;;;6.64;96.04;101687.63;8261848;28;20034;-64
2022/03/15 03:00:55;;;;;;;15.40;5.93;;;;;;;6.57;96.69;101691.63;8265172;28;20045;-64
2022/03/15 03:04:56;;;;;;;13.88;5.97;;;;;;;6.61;96.27;101690.50;8263431;28;20117;-64
2022/03/15 03:08:56;;;;;;;9.80;5.55;;;;;;;6.59;96.06;101689.69;8270461;28;20514;-64
2022/03/15 03:12:57;;;;;;;14.25;6.35;;;;;;;6.62;96.08;101692.22;8261426;28;20502;-64
2022/03/15 03:16:57;;;;;;;12.27;6.43;;;;;;;6.57;96.92;101683.56;8260992;28;20034;-64
2022/03/15 03:21:01;;;;;;;12.40;6.10;;;;;;;6.57;96.89;101682.69;8267599;28;20050;-64
2022/03/15 03:25:01;;;;;;;12.93;6.20;;;;;;;6.55;97.07;101680.09;8258089;28;20069;-64
2022/03/15 03:29:02;;;;;;;14.32;6.43;;;;;;;6.57;96.90;101686.25;8258120;28;20281;-64
2022/03/15 03:33:03;;;;;;;14.32;7.03;;;;;;;6.54;97.30;101683.75;8269838;28;20410;-64
2022/03/15 03:37:04;;;;;;;14.13;7.10;;;;;;;6.58;97.42;101682.59;8266959;28;20041;-64
2022/03/15 03:41:04;;;;;;;10.98;7.07;;;;;;;6.62;97.39;101675.25;8270949;28;20049;-64
2022/03/15 03:45:05;;;;;;;16.08;6.82;;;;;;;6.47;98.07;101670.75;8261274;28;20049;-64
2022/03/15 03:49:05;;;;;;;11.52;6.30;;;;;;;6.46;98.69;101669.03;8270992;28;20322;-64
2022/03/15 03:53:06;;;;;;;12.05;6.60;;;;;;;6.50;98.53;101670.56;8262478;28;20073;-64
2022/03/15 03:57:07;;;;;;;15.45;5.68;;;;;;;6.52;98.03;101669.53;8279923;28;20604;-64
2022/03/15 04:01:07;;;;;;;13.07;6.68;;;;;;;6.47;98.60;101658.19;8263748;28;20391;-64
2022/03/15 04:05:09;;;;;;;18.20;6.38;;;;;;;6.44;99.01;101655.69;8266614;28;20042;-64
2022/03/15 04:09:10;;;;;;;14.38;7.35;;;;;;;6.40;99.99;101654.09;8274341;28;20190;-64
2022/03/15 04:13:10;;;;;;;17.30;7.20;;;;;;;6.40;100.00;101654.09;8271523;28;20035;-64
2022/03/15 04:17:11;;;;;;;13.32;7.15;;;;;;;6.43;100.00;101653.91;8266988;28;20065;-64
2022/03/15 04:21:11;;;;;;;16.35;7.82;;;;;;;6.47;100.00;101655.50;8260399;28;20050;-64
2022/03/15 04:25:11;;;;;;;19.83;7.75;;;;;;;6.52;100.00;101655.25;8262739;28;20042;-64
2022/03/15 04:29:12;;;;;;;18.17;7.35;;;;;;;6.47;100.00;101654.63;8261391;28;20559;-64
2022/03/15 04:33:12;;;;;;;17.77;7.75;;;;;;;6.42;100.00;101660.25;8267845;28;20073;-64
2022/03/15 04:37:14;;;;;;;13.45;7.57;;;;;;;6.40;100.00;101647.88;8264609;28;20038;-64
2022/03/15 04:41:14;;;;;;;14.32;7.13;;;;;;;6.40;100.00;101654.09;8266163;28;20593;-64
2022/03/15 04:45:15;;;;;;;16.33;7.63;;;;;;;6.42;100.00;101656.69;8273203;28;20383;-64
2022/03/15 04:49:16;;;;;;;17.90;7.50;;;;;;;6.38;100.00;101650.66;8265311;28;20099;-64
2022/03/15 04:53:18;;;;;;;17.58;6.72;;;;;;;6.30;100.00;101650.19;8289016;28;20052;-64
2022/03/15 04:57:18;;;;;;;15.40;6.85;;;;;;;6.27;100.00;101634.25;8258375;28;20042;-64
2022/03/15 05:01:19;;;;;;;16.48;7.05;;;;;;;6.33;100.00;101631.22;8262262;28;20082;-64
2022/03/15 05:05:19;;;;;;;13.65;6.38;;;;;;;6.34;100.00;101627.56;8261467;28;20078;-64
2022/03/15 05:09:20;;;;;;;11.98;6.97;;;;;;;6.40;100.00;101627.22;8271193;28;20121;-64
2022/03/15 05:13:20;;;;;;;13.20;6.35;;;;;;;6.34;100.00;101627.56;8267544;28;20478;-64
2022/03/15 05:17:21;;;;;;;12.07;6.05;;;;;;;6.31;100.00;101626.91;8267766;28;20122;-64
2022/03/15 05:21:25;;;;;;;16.45;6.63;;;;;;;6.37;100.00;101619.34;8267073;28;20046;-64
2022/03/15 05:25:25;;;;;;;18.95;6.93;;;;;;;6.45;100.00;101619.78;8274084;28;20030;-64
2022/03/15 05:29:25;;;;;;;10.65;6.05;;;;;;;6.43;100.00;101615.47;8284859;28;20030;-64
2022/03/15 05:33:28;;;;;;;22.23;6.68;;;;;;;6.38;100.00;101610.38;8255801;28;20046;-64
2022/03/15 05:37:28;;;;;;;13.85;6.50;;;;;;;6.39;100.00;101608.53;8262471;28;20103;-64
2022/03/15 05:41:29;;;;;;;13.00;6.30;;;;;;;6.40;100.00;101600.38;8264476;28;20389;-64
2022/03/15 05:45:29;;;;;;;15.25;7.35;;;;;;;6.43;100.00;101605.56;8269190;28;20042;-64
2022/03/15 05:49:30;;;;;;;20.13;7.63;;;;;;;6.39;100.00;101604.03;8270225;28;20250;-64
2022/03/15 05:53:30;;;;;;;11.90;6.72;;;;;;;6.43;100.00;101605.56;8260449;28;20056;-64
2022/03/15 05:57:31;;;;;;;14.60;7.25;;;;;;;6.47;100.00;101593.72;8270521;28;20041;-64
2022/03/15 06:01:31;;;;;;;15.05;7.13;;;;;;;6.54;100.00;101592.41;8264728;28;20061;-64
2022/03/15 06:05:33;;;;;;;26.10;7.63;;;;;;;6.60;100.00;101585.78;8267140;28;20044;-64
2022/03/15 06:09:33;;;;;;;15.38;7.60;;;;;;;6.25;100.00;101585.13;8291118;28;20524;-64
2022/03/15 06:13:34;;;;;;;19.52;7.50;;;;;;;6.38;100.00;101580.81;8290969;28;20481;-64
2022/03/15 06:17:56;;;;;;;16.08;7.47;;;;;;;6.52;100.00;101575.50;8276039;28;20560;-64
2022/03/15 06:21:56;;;;;;;16.70;6.72;;;;;;;6.54;100.00;101573.59;8268108;28;20030;-64
2022/03/15 06:25:57;;;;;;;13.35;6.50;;;;;;;6.60;100.00;101575.94;8268138;28;20129;-64
2022/03/15 06:29:57;;;;;;;13.52;6.63;;;;;;;6.69;100.00;101572.69;8271832;28;20108;-64
2022/03/15 06:33:58;;;;;;;13.20;7.22;;;;;;;6.72;100.00;101580.59;8272133;28;20053;-64
2022/03/15 06:38:01;;;;;;;22.50;8.23;;;;;;;6.70;100.00;101571.75;8257587;28;20042;-65
2022/03/15 06:42:11;;;;;;;22.27;8.60;;;;;;;6.80;100.00;101572.91;8270076;28;20029;-65
2022/03/15 06:46:11;;;;;;;20.13;8.27;;;;;;;6.79;100.00;101555.06;8289336;28;20042;-65
2022/03/15 06:50:12;;;;;;;17.90;9.05;;;;;;;6.76;100.00;101563.31;8281659;28;20045;-65
2022/03/15 06:54:13;;;;;;;19.75;8.90;;;;;;;6.90;100.00;101560.69;8256635;28;20375;-65
2022/03/15 06:58:14;;;;;;;19.55;8.05;;;;;;;6.81;100.00;101561.22;8262869;28;20109;-65
2022/03/15 07:02:14;;;;;;;18.17;7.93;;;;;;;6.90;100.00;101555.31;8258247;28;20030;-65
2022/03/15 07:06:15;;;;;;;19.17;8.32;;;;;;;7.08;100.00;101551.47;8267838;28;20120;-65
2022/03/15 07:10:17;;;;;;;17.48;8.30;;;;;;;7.28;100.00;101553.81;8287939;28;20037;-65
2022/03/15 07:14:18;;;;;;;17.45;8.25;;;;;;;7.37;100.00;101547.88;8286244;28;20057;-65
2022/03/15 07:18:19;;;;;;;19.88;8.13;;;;;;;7.40;100.00;101550.38;8266503;28;20123;-65
2022/03/15 07:22:19;;;;;;;19.65;7.85;;;;;;;7.57;100.00;101549.34;8260458;28;20058;-65
2022/03/15 07:26:20;;;;;;;15.30;7.80;;;;;;;7.44;100.00;101545.69;8257024;28;20034;-65
2022/03/15 07:30:20;;;;;;;19.02;8.70;;;;;;;7.46;100.00;101547.31;8257571;28;20418;-65
2022/03/15 07:34:21;;;;;;;17.20;8.65;;;;;;;7.90;100.00;101547.19;8253114;28;20046;-65
2022/03/15 07:38:21;;;;;;;19.55;8.30;;;;;;;7.79;98.53;101529.03;8254485;28;20038;-65
2022/03/15 07:42:23;;;;;;;18.08;7.57;;;;;;;7.85;97.59;101543.91;8261072;28;20045;-65
2022/03/15 07:46:23;;;;;;;15.57;7.35;;;;;;;7.94;97.01;101533.41;8256865;28;20045;-65
2022/03/15 07:50:25;;;;;;;16.23;7.82;;;;;;;7.97;95.16;101527.81;8262697;28;20093;-65
2022/03/15 07:54:25;;;;;;;24.17;8.38;;;;;;;7.87;94.99;101526.69;8257188;28;20131;-65
2022/03/15 07:58:27;;;;;;;19.65;8.63;;;;;;;8.12;95.87;101525.09;8249077;28;20038;-65
2022/03/15 08:02:27;;;;;;;26.33;8.90;;;;;;;8.23;94.63;101523.47;8255206;28;20494;-65
2022/03/15 08:06:29;;;;;;;22.70;8.15;;;;;;;8.16;95.21;101513.16;8268122;28;20426;-65
2022/03/15 08:10:30;;;;;;;21.10;8.25;;;;;;;8.25;94.26;101516.16;8286012;28;20088;-65
2022/03/15 08:14:31;;;;;;;18.48;7.28;;;;;;;8.41;93.32;101518.69;8287480;28;20046;-65
2022/03/15 08:18:32;;;;;;;18.02;8.10;;;;;;;8.44;93.88;101521.16;8286588;28;20517;-65
2022/03/15 08:22:33;;;;;;;16.63;7.63;;;;;;;8.47;92.75;101516.44;8259519;28;20034;-65
2022/03/15 08:26:34;;;;;;;18.33;7.18;;;;;;;8.65;92.51;101508.94;8255654;28;20045;-65
2022/03/15 08:30:34;;;;;;;15.95;6.85;;;;;;;8.83;92.35;101507.69;8238840;28;20486;-65
2022/03/15 08:34:34;;;;;;;14.88;6.78;;;;;;;8.98;92.02;101512.03;8255052;28;20038;-65
2022/03/15 08:38:35;;;;;;;14.48;5.90;;;;;;;9.01;91.36;101501.91;8255888;28;20092;-65
2022/03/15 08:42:35;;;;;;;14.48;6.07;;;;;;;8.99;92.84;101502.97;8277907;28;20041;-65
2022/03/15 08:46:36;;;;;;;12.27;5.75;;;;;;;8.86;92.42;101496.69;8286099;28;20351;-65
2022/03/15 08:50:36;;;;;;;12.07;6.05;;;;;;;9.09;91.55;101495.97;8277238;28;20111;-65
2022/03/15 08:54:37;;;;;;;13.30;5.65;;;;;;;9.01;92.04;101492.94;8255840;28;20363;-65
2022/03/15 08:58:38;;;;;;;12.20;5.53;;;;;;;9.03;91.36;101493.69;8255674;28;20591;-65
2022/03/15 09:02:38;;;;;;;23.10;6.90;;;;;;;9.08;91.81;101496.91;8255445;28;20398;-65
2022/03/15 09:06:39;;;;;;;11.63;5.75;;;;;;;9.29;90.92;101495.41;8268150;28;20041;-65
2022/03/15 09:10:42;;;;;;;18.05;6.53;;;;;;;9.33;89.98;101489.69;8291418;28;20038;-65
2022/03/15 09:14:42;;;;;;;17.75;6.65;;;;;;;9.31;90.27;101482.69;8292889;28;20545;-65
2022/03/15 09:18:43;;;;;;;16.95;6.65;;;;;;;9.49;89.54;101474.13;8291070;28;20445;-65
2022/03/15 09:22:44;;;;;;;19.77;6.75;;;;;;;9.47;88.96;101472.53;8262436;28;20042;-65
2022/03/15 09:26:44;;;;;;;15.63;6.68;;;;;;;9.46;89.21;101477.03;8261282;28;20035;-65
2022/03/15 09:30:45;;;;;;;16.80;6.97;;;;;;;9.58;89.43;101469.91;8261427;28;20034;-65
2022/03/15 09:34:45;;;;;;;16.88;6.18;;;;;;;9.70;89.14;101469.03;8261718;28;20074;-65
2022/03/15 09:38:46;;;;;;;14.55;7.10;;;;;;;9.63;90.18;101473.13;8259914;28;20031;-65
2022/03/15 09:42:49;;;;;;;18.70;7.65;;;;;;;9.53;91.33;101488.28;8262717;28;20046;-65
2022/03/15 09:46:51;;;;;;;16.95;5.93;;;;;;;9.66;90.05;101462.09;8269383;28;20530;-65
2022/03/15 09:50:51;;;;;;;12.55;5.82;;;;;;;9.79;88.17;101465.66;8252687;28;20058;-65
2022/03/15 09:54:52;;;;;;;17.88;7.22;;;;;;;9.75;88.11;101466.84;8284077;28;20056;-65
2022/03/15 09:58:53;;;;;;;12.60;7.07;;;;;;;9.84;87.94;101452.66;8291681;28;20034;-65
2022/03/15 10:02:54;;;;;;;19.33;7.00;;;;;;;9.70;88.36;101455.53;8291619;28;20054;-65
2022/03/15 10:06:55;;;;;;;21.00;6.95;;;;;;;9.75;87.22;101456.91;8290924;28;20183;-65
2022/03/15 10:10:56;;;;;;;14.30;5.97;;;;;;;9.77;87.58;101456.78;8291327;28;20033;-65
2022/03/15 10:14:56;;;;;;;11.88;5.43;;;;;;;9.84;87.74;101449.97;8291428;28;20038;-65
2022/03/15 10:18:58;;;;;;;12.32;4.95;;;;;;;9.91;87.61;101451.22;8290662;28;20105;-65
2022/03/15 10:23:02;;;;;;;13.00;5.63;;;;;;;9.83;88.65;101437.44;8259792;28;20042;-65
2022/03/15 10:27:06;;;;;;;14.27;6.60;;;;;;;9.73;90.54;101431.00;8259337;28;20501;-65
2022/03/15 10:31:09;;;;;;;11.77;6.30;;;;;;;9.66;91.47;101427.00;8257978;28;20452;-65
2022/03/15 10:35:09;;;;;;;12.68;6.75;;;;;;;9.67;92.53;101417.97;8259578;28;20043;-65
2022/03/15 10:39:12;;;;;;;14.40;6.63;;;;;;;9.68;95.55;101419.66;8259651;28;20498;-65
2022/03/15 10:43:18;;;;;;;13.73;6.43;;;;;;;9.63;93.94;101402.94;8287184;28;20033;-65
2022/03/15 10:47:20;;;;;;;13.98;6.60;;;;;;;9.64;94.99;101402.81;8289259;28;20401;-65
2022/03/15 10:51:21;;;;;;;18.85;7.35;;;;;;;9.77;94.34;101400.09;8269325;28;20062;-65
2022/03/15 10:55:26;;;;;;;9.95;6.45;;;;;;;9.86;96.22;101405.66;8258636;28;20046;-65
2022/03/15 10:59:27;;;;;;;13.38;6.95;;;;;;;10.04;97.71;101400.72;8259074;28;20038;-65
2022/03/15 11:03:29;;;;;;;14.65;6.80;;;;;;;9.83;98.01;101394.22;8258744;28;20035;-65
2022/03/15 11:07:47;;;;;;;12.43;6.70;;;;;;;9.84;99.29;101385.16;8277500;28;20466;-65
2022/03/15 11:12:00;;;;;;;17.15;7.30;;;;;;;9.83;97.31;101391.53;8263039;28;20037;-65
2022/03/15 11:16:04;;;;;;;15.05;7.43;;;;;;;9.86;100.00;101383.19;8258014;28;20034;-65
2022/03/15 11:20:07;;;;;;;13.32;7.55;;;;;;;9.90;100.00;101385.56;8260937;28;20026;-65
2022/03/15 11:24:11;;;;;;;15.75;7.15;;;;;;;9.69;100.00;101375.47;8256456;28;20411;-65
2022/03/15 11:28:14;;;;;;;16.07;8.53;;;;;;;9.67;100.00;101372.91;8257641;28;20498;-65
2022/03/15 11:32:15;;;;;;;18.00;7.45;;;;;;;9.64;100.00;101356.09;8256663;28;20061;-65
2022/03/15 11:36:16;;;;;;;12.73;7.47;;;;;;;9.64;100.00;101356.09;8257653;28;20050;-65
2022/03/15 11:40:18;;;;;;;12.38;7.82;;;;;;;9.64;100.00;101356.09;8262308;28;20061;-65
2022/03/15 11:44:28;;;;;;;14.48;8.27;;;;;;;9.72;100.00;101348.25;8288252;28;20125;-65
2022/03/15 11:48:53;;;;;;;15.88;8.25;;;;;;;10.13;100.00;101343.31;8264058;28;20035;-65
2022/03/15 11:53:08;;;;;;;15.30;8.25;;;;;;;10.06;100.00;101336.63;8255243;28;20046;-65
2022/03/15 11:57:21;;;;;;;18.77;8.10;;;;;;;9.81;100.00;101320.56;8254603;28;20041;-65
2022/03/15 12:01:23;;;;;;;17.88;7.95;;;;;;;9.65;100.00;101318.16;8257137;28;20046;-65
2022/03/15 12:05:25;;;;;;;18.48;7.72;;;;;;;9.69;100.00;101305.28;8258842;28;20087;-65
2022/03/15 12:09:30;;;;;;;16.92;8.63;;;;;;;9.69;100.00;101305.28;8287534;28;20045;-65
2022/03/15 12:13:39;;;;;;;19.48;8.90;;;;;;;9.81;100.00;101293.56;8287562;28;20038;-65
2022/03/15 12:17:40;;;;;;;17.95;10.10;;;;;;;9.96;100.00;101286.97;8279566;28;20048;-65
2022/03/15 12:21:52;;;;;;;19.55;9.45;;;;;;;9.91;100.00;101276.53;8267746;28;20113;-65
2022/03/15 12:25:54;;;;;;;17.67;9.73;;;;;;;10.00;100.00;101266.84;8256091;28;20030;-65
2022/03/15 12:29:58;;;;;;;24.42;9.68;;;;;;;10.05;100.00;101264.66;8256452;28;20046;-65
2022/03/15 12:34:19;;;;;;;17.92;9.45;;;;;;;9.93;100.00;101254.81;8256099;28;20034;-65
2022/03/15 12:38:19;;;;;;;18.13;9.23;;;;;;;9.99;100.00;101247.09;8255133;28;20092;-64
2022/03/15 12:42:22;;;;;;;18.40;8.68;;;;;;;10.01;100.00;101253.22;8259502;28;20072;-64
2022/03/15 12:46:30;;;;;;;16.60;8.48;;;;;;;10.02;100.00;101254.09;8279128;28;20037;-64
2022/03/15 12:50:31;;;;;;;18.65;8.43;;;;;;;10.10;100.00;101249.00;8260622;28;20045;-64
2022/03/15 12:54:32;;;;;;;16.10;8.40;;;;;;;10.10;100.00;101245.44;8255460;28;20049;-64
2022/03/15 12:58:34;;;;;;;14.85;7.80;;;;;;;10.02;100.00;101246.00;8255752;28;20108;-64
2022/03/15 13:02:35;;;;;;;15.18;7.97;;;;;;;9.93;100.00;101235.91;8255574;28;20064;-64
2022/03/15 13:06:41;;;;;;;13.50;8.10;;;;;;;9.96;100.00;101243.75;8256422;28;20113;-64
2022/03/15 13:10:46;;;;;;;15.90;8.00;;;;;;;9.87;100.00;101245.34;8259898;28;20034;-65
2022/03/15 13:14:54;;;;;;;20.85;8.32;;;;;;;9.93;100.00;101238.59;8286037;28;20042;-64
2022/03/15 13:18:54;;;;;;;22.45;9.23;;;;;;;9.94;100.00;101230.38;8286149;28;20041;-64
2022/03/15 13:22:56;;;;;;;16.58;9.07;;;;;;;9.98;100.00;101225.59;8257149;28;20081;-65
2022/03/15 13:26:58;;;;;;;19.45;9.82;;;;;;;10.05;100.00;101213.34;8254325;28;20549;-65
2022/03/15 13:31:04;;;;;;;19.45;10.35;;;;;;;10.16;100.00;101213.41;8254777;28;20034;-65
2022/03/15 13:35:05;;;;;;;15.93;9.85;;;;;;;9.97;100.00;101210.38;8249705;28;20041;-65
2022/03/15 13:39:08;;;;;;;22.40;9.80;;;;;;;10.09;100.00;101193.22;8254531;28;20041;-65
2022/03/15 13:43:10;;;;;;;21.92;10.63;;;;;;;10.14;100.00;101182.94;8281446;28;20038;-65
2022/03/15 13:47:14;;;;;;;16.40;9.70;;;;;;;10.22;100.00;101185.88;8284481;28;20521;-65
2022/03/15 13:51:35;;;;;;;20.42;9.77;;;;;;;10.12;100.00;101167.84;8266548;28;20454;-65
2022/03/15 13:55:37;;;;;;;15.13;9.45;;;;;;;10.07;100.00;101164.63;8281859;28;20037;-65
2022/03/15 13:59:38;;;;;;;16.63;8.68;;;;;;;10.02;100.00;101162.25;8283648;28;20085;-65
2022/03/15 14:03:38;;;;;;;19.08;9.57;;;;;;;10.18;100.00;101175.44;8242750;28;20038;-65
2022/03/15 14:07:39;;;;;;;11.65;8.75;;;;;;;10.36;100.00;101188.34;8279502;28;20071;-65
2022/03/15 14:11:46;;;;;;;16.65;8.15;;;;;;;10.22;100.00;101195.81;8290734;28;20033;-65
2022/03/15 14:15:47;;;;;;;20.33;9.23;;;;;;;10.26;100.00;101187.34;8290548;28;20121;-65
2022/03/15 14:19:50;;;;;;;15.50;8.85;;;;;;;10.32;100.00;101191.41;8285889;28;20042;-65
2022/03/15 14:23:54;;;;;;;16.70;9.03;;;;;;;10.29;100.00;101189.81;8272237;28;20034;-65
2022/03/15 14:27:58;;;;;;;21.60;9.30;;;;;;;10.43;100.00;101194.97;8258975;28;20315;-65
2022/03/15 14:32:06;;;;;;;16.20;10.15;;;;;;;10.34;100.00;101190.28;8258923;28;20181;-65
2022/03/15 14:36:07;;;;;;;18.38;8.77;;;;;;;10.30;100.00;101186.13;8258277;28;20043;-65
2022/03/15 14:40:12;;;;;;;16.95;9.35;;;;;;;10.47;100.00;101196.44;8261381;28;20065;-65
2022/03/15 14:44:16;;;;;;;17.90;9.68;;;;;;;10.53;100.00;101201.38;8289945;28;20091;-65
2022/03/15 14:48:29;;;;;;;16.65;9.32;;;;;;;10.47;100.00;101212.69;8289479;28;20044;-65
2022/03/15 14:52:30;;;;;;;15.65;9.23;;;;;;;10.37;100.00;101206.25;8258841;28;20113;-65
2022/03/15 14:56:34;;;;;;;17.65;9.45;;;;;;;10.36;100.00;101215.34;8258244;28;20049;-65
2022/03/15 15:00:36;;;;;;;17.52;9.57;;;;;;;10.26;100.00;101222.50;8276429;28;20502;-65
2022/03/15 15:04:36;;;;;;;14.00;8.23;;;;;;;10.13;100.00;101216.34;8266526;28;20042;-65
2022/03/15 15:08:37;;;;;;;15.25;9.65;;;;;;;10.24;100.00;101210.94;8271535;28;20137;-65
2022/03/15 15:12:37;;;;;;;19.83;9.60;;;;;;;10.28;100.00;101198.03;8263396;28;20495;-65
2022/03/15 15:16:40;;;;;;;20.33;10.05;;;;;;;10.42;100.00;101204.06;8256437;28;20077;-65
2022/03/15 15:20:41;;;;;;;17.67;10.52;;;;;;;10.37;100.00;101200.84;8263920;28;20046;-65
2022/03/15 15:24:42;;;;;;;17.05;10.40;;;;;;;10.35;100.00;101208.25;8272937;28;20069;-65
2022/03/15 15:28:42;;;;;;;17.55;10.13;;;;;;;10.23;100.00;101206.50;8260890;28;20046;-65
2022/03/15 15:32:43;;;;;;;21.80;10.82;;;;;;;10.16;100.00;101199.00;8270650;28;20822;-65
2022/03/15 15:36:44;;;;;;;19.23;11.93;;;;;;;10.06;100.00;101211.50;8255869;28;20042;-65
2022/03/15 15:40:47;;;;;;;20.23;12.60;;;;;;;10.00;100.00;101208.28;8261909;28;20088;-65
2022/03/15 15:44:52;;;;;;;19.77;12.13;;;;;;;10.15;100.00;101206.25;8274296;28;20034;-65
2022/03/15 15:48:54;;;;;;;24.73;13.95;;;;;;;10.15;100.00;101211.66;8257742;28;20042;-65
2022/03/15 15:52:55;;;;;;;20.17;13.68;;;;;;;10.14;100.00;101215.34;8255179;28;20117;-65
2022/03/15 15:56:56;;;;;;;21.08;12.30;;;;;;;10.07;100.00;101218.66;8264123;28;20132;-66
2022/03/15 16:00:57;;;;;;;22.77;12.93;;;;;;;10.04;100.00;101214.31;8274943;28;20056;-65
2022/03/15 16:04:57;;;;;;;19.48;12.00;;;;;;;10.01;100.00;101211.88;8263056;28;20100;-65
2022/03/15 16:09:01;;;;;;;22.23;11.10;;;;;;;10.00;100.00;101220.94;8272215;28;20038;-65
2022/03/15 16:13:03;;;;;;;20.45;12.15;;;;;;;10.04;100.00;101217.03;8270874;28;20050;-65
2022/03/15 16:17:03;;;;;;;17.40;10.30;;;;;;;10.09;100.00;101233.75;8266495;28;20455;-65
2022/03/15 16:21:03;;;;;;;26.05;13.45;;;;;;;10.13;100.00;101229.84;8269398;28;20038;-65
2022/03/15 16:25:05;;;;;;;21.42;12.27;;;;;;;10.02;100.00;101237.88;8259831;28;20574;-65
2022/03/15 16:29:06;;;;;;;22.83;12.43;;;;;;;10.01;100.00;101241.59;8261127;28;20046;-65
2022/03/15 16:33:07;;;;;;;26.45;13.73;;;;;;;10.07;100.00;101246.53;8265364;28;20120;-65
2022/03/15 16:37:07;;;;;;;25.00;13.32;;;;;;;9.95;100.00;101251.00;8269944;28;20042;-65
2022/03/15 16:41:07;;;;;;;25.67;13.25;;;;;;;9.95;100.00;101260.97;8266730;28;20038;-65
2022/03/15 16:45:08;;;;;;;26.33;13.65;;;;;;;9.98;100.00;101263.44;8248115;28;20601;-65
2022/03/15 16:49:08;;;;;;;21.58;13.35;;;;;;;9.94;100.00;101264.63;8249695;28;20049;-65
2022/03/15 16:53:09;;;;;;;21.98;12.80;;;;;;;9.85;100.00;101268.03;8259407;28;20123;-65
2022/03/15 16:57:11;;;;;;;27.20;14.38;;;;;;;9.80;100.00;101272.94;8267151;28;20268;-65
2022/03/15 17:01:12;;;;;;;25.15;14.20;;;;;;;9.77;100.00;101274.03;8245423;28;20041;-65
2022/03/15 17:05:43;;;;;;;24.92;13.25;;;;;;;9.83;100.00;101275.41;8251495;28;20085;-65
2022/03/15 17:09:33;;;;;;;28.17;14.52;;;;;;;9.84;100.00;101282.53;8254925;28;20437;-65
2022/03/15 17:13:39;;;;;;;28.33;14.27;;;;;;;9.81;100.00;101277.34;8277898;28;20076;-65
2022/03/15 17:17:39;;;;;;;31.13;15.35;;;;;;;9.76;100.00;101276.88;8263288;28;20100;-65
2022/03/15 17:21:40;;;;;;;25.92;14.52;;;;;;;9.81;100.00;101271.94;8251604;28;20034;-65
2022/03/15 17:25:40;;;;;;;26.53;14.83;;;;;;;9.82;100.00;101279.06;8251029;28;20129;-65
2022/03/15 17:29:44;;;;;;;25.95;14.95;;;;;;;9.74;100.00;101274.28;8230157;28;20619;-65
2022/03/15 17:33:49;;;;;;;25.05;13.25;;;;;;;9.74;100.00;101281.50;8258123;28;20177;-65
2022/03/15 17:37:59;;;;;;;23.13;14.15;;;;;;;9.67;100.00;101274.84;8261450;28;20050;-65
2022/03/15 17:42:02;;;;;;;28.60;14.32;;;;;;;9.54;100.00;101284.84;8282179;28;20354;-65
2022/03/15 17:46:07;;;;;;;21.92;13.60;;;;;;;9.51;100.00;101279.66;8285521;28;20038;-65
2022/03/15 17:50:09;;;;;;;22.50;13.38;;;;;;;9.48;100.00;101275.38;8275796;28;20116;-65
2022/03/15 17:54:12;;;;;;;18.85;11.98;;;;;;;9.46;100.00;101287.28;8254458;28;20046;-65
2022/03/15 17:58:13;;;;;;;22.40;12.60;;;;;;;9.32;100.00;101284.72;8250686;28;20429;-65
2022/03/15 18:02:19;;;;;;;31.27;19.38;;;;;;;9.29;100.00;101290.34;8251698;28;20125;-65
2022/03/15 18:06:22;;;;;;;21.88;12.60;;;;;;;9.17;100.00;101294.81;8262923;28;20046;-65
2022/03/15 18:11:23;;;;;;;26.05;15.75;;;;;;;9.09;100.00;101304.47;8284369;28;20136;-65
2022/03/15 18:14:43;;;;;;;23.02;13.73;;;;;;;8.97;100.00;101300.78;8256617;28;20046;-65
2022/03/15 18:18:43;;;;;;;21.75;13.05;;;;;;;9.06;100.00;101310.06;8261987;28;20434;-65
2022/03/15 18:22:45;;;;;;;19.80;12.13;;;;;;;9.00;100.00;101310.53;8260439;28;20584;-65
2022/03/15 18:26:45;;;;;;;16.33;10.45;;;;;;;8.93;100.00;101314.59;8260458;28;20121;-65
2022/03/15 18:30:48;;;;;;;17.70;10.82;;;;;;;8.95;100.00;101312.69;8251521;28;20038;-65